sensor_id;sensor_type;location;lat;lon;timestamp;temperature;humidity
11963;DHT22;62678;52.130;5.584;2023-01-20T00:00:20;1.50;99.90
11963;DHT22;62678;52.130;5.584;2023-01-20T00:02:48;1.50;99.90
11963;DHT22;62678;52.130;5.584;2023-01-20T00:05:16;1.50;99.90
11963;DHT22;62678;52.130;5.584;2023-01-20T00:07:43;1.50;99.90
11963;DHT22;62678;52.130;5.584;2023-01-20T00:10:10;1.50;99.90
11963;DHT22;62678;52.130;5.584;2023-01-20T00:12:37;1.50;99.90
11963;DHT22;62678;52.130;5.584;2023-01-20T00:15:05;1.50;99.90
11963;DHT22;62678;52.130;5.584;2023-01-20T00:17:34;1.50;99.90
11963;DHT22;62678;52.130;5.584;2023-01-20T00:20:01;1.50;99.90
11963;DHT22;62678;52.130;5.584;2023-01-20T00:22:30;1.50;99.90
11963;DHT22;62678;52.130;5.584;2023-01-20T00:24:57;1.40;99.90
11963;DHT22;62678;52.130;5.584;2023-01-20T00:27:24;1.30;99.90
11963;DHT22;62678;52.130;5.584;2023-01-20T00:29:51;1.30;99.90
11963;DHT22;62678;52.130;5.584;2023-01-20T00:32:18;1.30;99.90
11963;DHT22;62678;52.130;5.584;2023-01-20T00:34:45;1.20;99.90
11963;DHT22;62678;52.130;5.584;2023-01-20T00:37:12;1.20;99.90
11963;DHT22;62678;52.130;5.584;2023-01-20T00:39:40;1.20;99.90
11963;DHT22;62678;52.130;5.584;2023-01-20T00:42:07;1.20;99.90
11963;DHT22;62678;52.130;5.584;2023-01-20T00:44:34;1.20;99.90
11963;DHT22;62678;52.130;5.584;2023-01-20T00:47:01;1.20;99.90
11963;DHT22;62678;52.130;5.584;2023-01-20T00:49:28;1.10;99.90
11963;DHT22;62678;52.130;5.584;2023-01-20T00:51:55;1.00;99.90
11963;DHT22;62678;52.130;5.584;2023-01-20T00:54:22;1.10;99.90
11963;DHT22;62678;52.130;5.584;2023-01-20T00:56:50;1.10;99.90
11963;DHT22;62678;52.130;5.584;2023-01-20T00:59:17;1.30;99.90
11963;DHT22;62678;52.130;5.584;2023-01-20T01:01:44;1.30;99.90
11963;DHT22;62678;52.130;5.584;2023-01-20T01:04:11;1.50;99.90
11963;DHT22;62678;52.130;5.584;2023-01-20T01:06:38;1.50;99.90
11963;DHT22;62678;52.130;5.584;2023-01-20T01:09:05;1.60;99.90
11963;DHT22;62678;52.130;5.584;2023-01-20T01:11:32;1.50;99.90
11963;DHT22;62678;52.130;5.584;2023-01-20T01:14:00;1.60;99.90
11963;DHT22;62678;52.130;5.584;2023-01-20T01:16:27;1.60;99.90
11963;DHT22;62678;52.130;5.584;2023-01-20T01:18:54;1.60;99.90
11963;DHT22;62678;52.130;5.584;2023-01-20T01:21:21;1.70;99.90
11963;DHT22;62678;52.130;5.584;2023-01-20T01:23:48;1.80;99.90
11963;DHT22;62678;52.130;5.584;2023-01-20T01:26:16;1.80;99.90
11963;DHT22;62678;52.130;5.584;2023-01-20T01:28:46;1.80;99.90
11963;DHT22;62678;52.130;5.584;2023-01-20T01:31:16;1.90;99.90
11963;DHT22;62678;52.130;5.584;2023-01-20T01:33:43;1.90;99.90
11963;DHT22;62678;52.130;5.584;2023-01-20T01:36:13;1.80;99.90
11963;DHT22;62678;52.130;5.584;2023-01-20T01:38:41;1.80;99.90
11963;DHT22;62678;52.130;5.584;2023-01-20T01:41:09;1.90;99.90
11963;DHT22;62678;52.130;5.584;2023-01-20T01:43:37;2.00;99.90
11963;DHT22;62678;52.130;5.584;2023-01-20T01:46:05;2.00;99.90
11963;DHT22;62678;52.130;5.584;2023-01-20T01:48:36;1.90;99.90
11963;DHT22;62678;52.130;5.584;2023-01-20T01:51:08;1.90;99.90
11963;DHT22;62678;52.130;5.584;2023-01-20T01:53:42;2.00;99.90
11963;DHT22;62678;52.130;5.584;2023-01-20T01:56:10;1.90;99.90
11963;DHT22;62678;52.130;5.584;2023-01-20T01:58:40;2.00;99.90
11963;DHT22;62678;52.130;5.584;2023-01-20T02:01:09;2.00;99.90
11963;DHT22;62678;52.130;5.584;2023-01-20T02:03:42;2.00;99.90
11963;DHT22;62678;52.130;5.584;2023-01-20T02:06:10;2.00;99.90
11963;DHT22;62678;52.130;5.584;2023-01-20T02:08:37;2.00;99.90
11963;DHT22;62678;52.130;5.584;2023-01-20T02:11:04;2.00;99.90
11963;DHT22;62678;52.130;5.584;2023-01-20T02:13:32;2.00;99.90
11963;DHT22;62678;52.130;5.584;2023-01-20T02:16:07;2.10;99.90
11963;DHT22;62678;52.130;5.584;2023-01-20T02:18:45;2.10;99.90
11963;DHT22;62678;52.130;5.584;2023-01-20T02:28:00;2.10;99.90
11963;DHT22;62678;52.130;5.584;2023-01-20T02:30:38;2.10;99.90
11963;DHT22;62678;52.130;5.584;2023-01-20T02:33:18;2.00;99.90
11963;DHT22;62678;52.130;5.584;2023-01-20T02:35:52;2.10;99.90
11963;DHT22;62678;52.130;5.584;2023-01-20T02:38:26;2.10;99.90
11963;DHT22;62678;52.130;5.584;2023-01-20T02:41:03;2.10;99.90
11963;DHT22;62678;52.130;5.584;2023-01-20T02:43:41;2.00;99.90
11963;DHT22;62678;52.130;5.584;2023-01-20T02:46:15;2.00;99.90
11963;DHT22;62678;52.130;5.584;2023-01-20T02:48:50;2.10;99.90
11963;DHT22;62678;52.130;5.584;2023-01-20T02:51:21;2.10;99.90
11963;DHT22;62678;52.130;5.584;2023-01-20T02:53:54;2.00;99.90
11963;DHT22;62678;52.130;5.584;2023-01-20T02:56:24;2.00;99.90
11963;DHT22;62678;52.130;5.584;2023-01-20T02:58:56;2.10;99.90
11963;DHT22;62678;52.130;5.584;2023-01-20T03:01:25;1.90;99.90
11963;DHT22;62678;52.130;5.584;2023-01-20T03:03:58;1.90;99.90
11963;DHT22;62678;52.130;5.584;2023-01-20T03:06:29;1.90;99.90
11963;DHT22;62678;52.130;5.584;2023-01-20T03:08:59;1.80;99.90
11963;DHT22;62678;52.130;5.584;2023-01-20T03:11:30;1.80;99.90
11963;DHT22;62678;52.130;5.584;2023-01-20T03:14:05;1.90;99.90
11963;DHT22;62678;52.130;5.584;2023-01-20T03:16:33;1.90;99.90
11963;DHT22;62678;52.130;5.584;2023-01-20T03:19:01;2.00;99.90
11963;DHT22;62678;52.130;5.584;2023-01-20T03:21:29;1.90;99.90
11963;DHT22;62678;52.130;5.584;2023-01-20T03:23:59;1.90;99.90
11963;DHT22;62678;52.130;5.584;2023-01-20T03:26:27;1.90;99.90
11963;DHT22;62678;52.130;5.584;2023-01-20T03:28:55;1.90;99.90
11963;DHT22;62678;52.130;5.584;2023-01-20T03:31:26;1.70;99.90
11963;DHT22;62678;52.130;5.584;2023-01-20T03:33:57;1.80;99.90
11963;DHT22;62678;52.130;5.584;2023-01-20T03:36:28;1.90;99.90
11963;DHT22;62678;52.130;5.584;2023-01-20T03:38:57;1.80;99.90
11963;DHT22;62678;52.130;5.584;2023-01-20T03:41:30;1.90;99.90
11963;DHT22;62678;52.130;5.584;2023-01-20T03:44:08;1.90;99.90
11963;DHT22;62678;52.130;5.584;2023-01-20T03:46:42;1.90;99.90
11963;DHT22;62678;52.130;5.584;2023-01-20T03:49:16;2.00;99.90
11963;DHT22;62678;52.130;5.584;2023-01-20T03:51:55;1.90;99.90
11963;DHT22;62678;52.130;5.584;2023-01-20T03:54:29;1.90;99.90
11963;DHT22;62678;52.130;5.584;2023-01-20T03:57:00;2.00;99.90
11963;DHT22;62678;52.130;5.584;2023-01-20T03:59:31;1.90;99.90
11963;DHT22;62678;52.130;5.584;2023-01-20T04:02:02;1.90;99.90
11963;DHT22;62678;52.130;5.584;2023-01-20T04:04:32;1.90;99.90
11963;DHT22;62678;52.130;5.584;2023-01-20T04:07:03;1.90;99.90
11963;DHT22;62678;52.130;5.584;2023-01-20T04:09:35;1.90;99.90
11963;DHT22;62678;52.130;5.584;2023-01-20T04:12:04;2.00;99.90
11963;DHT22;62678;52.130;5.584;2023-01-20T04:14:33;1.80;99.90
11963;DHT22;62678;52.130;5.584;2023-01-20T04:17:00;1.90;99.90
11963;DHT22;62678;52.130;5.584;2023-01-20T04:19:29;1.90;99.90
11963;DHT22;62678;52.130;5.584;2023-01-20T04:22:02;1.90;99.90
11963;DHT22;62678;52.130;5.584;2023-01-20T04:24:33;2.00;99.90
11963;DHT22;62678;52.130;5.584;2023-01-20T04:27:02;2.00;99.90
11963;DHT22;62678;52.130;5.584;2023-01-20T04:29:29;1.90;99.90
11963;DHT22;62678;52.130;5.584;2023-01-20T04:32:12;1.90;99.90
11963;DHT22;62678;52.130;5.584;2023-01-20T04:34:39;2.00;99.90
11963;DHT22;62678;52.130;5.584;2023-01-20T04:37:08;1.90;99.90
11963;DHT22;62678;52.130;5.584;2023-01-20T04:39:35;1.90;99.90
11963;DHT22;62678;52.130;5.584;2023-01-20T04:42:02;1.80;99.90
11963;DHT22;62678;52.130;5.584;2023-01-20T04:44:29;1.80;99.90
11963;DHT22;62678;52.130;5.584;2023-01-20T04:46:56;1.80;99.90
11963;DHT22;62678;52.130;5.584;2023-01-20T04:49:23;1.80;99.90
11963;DHT22;62678;52.130;5.584;2023-01-20T04:51:50;1.70;99.90
11963;DHT22;62678;52.130;5.584;2023-01-20T04:54:19;1.70;99.90
11963;DHT22;62678;52.130;5.584;2023-01-20T04:56:47;1.80;99.90
11963;DHT22;62678;52.130;5.584;2023-01-20T04:59:14;1.80;99.90
11963;DHT22;62678;52.130;5.584;2023-01-20T05:01:41;1.80;99.90
11963;DHT22;62678;52.130;5.584;2023-01-20T05:04:08;1.80;99.90
11963;DHT22;62678;52.130;5.584;2023-01-20T05:06:35;1.80;99.90
11963;DHT22;62678;52.130;5.584;2023-01-20T05:09:02;1.80;99.90
11963;DHT22;62678;52.130;5.584;2023-01-20T05:11:31;1.90;99.90
11963;DHT22;62678;52.130;5.584;2023-01-20T05:13:58;1.90;99.90
11963;DHT22;62678;52.130;5.584;2023-01-20T05:16:25;1.80;99.90
11963;DHT22;62678;52.130;5.584;2023-01-20T05:18:56;1.90;99.90
11963;DHT22;62678;52.130;5.584;2023-01-20T05:21:23;1.80;99.90
11963;DHT22;62678;52.130;5.584;2023-01-20T05:23:52;1.70;99.90
11963;DHT22;62678;52.130;5.584;2023-01-20T05:26:19;1.80;99.90
11963;DHT22;62678;52.130;5.584;2023-01-20T05:28:47;1.80;99.90
11963;DHT22;62678;52.130;5.584;2023-01-20T05:31:15;1.80;99.90
11963;DHT22;62678;52.130;5.584;2023-01-20T05:33:42;1.80;99.90
11963;DHT22;62678;52.130;5.584;2023-01-20T05:36:10;1.70;99.90
11963;DHT22;62678;52.130;5.584;2023-01-20T05:38:37;1.80;99.90
11963;DHT22;62678;52.130;5.584;2023-01-20T05:41:06;1.80;99.90
11963;DHT22;62678;52.130;5.584;2023-01-20T05:43:34;1.80;99.90
11963;DHT22;62678;52.130;5.584;2023-01-20T05:46:03;1.80;99.90
11963;DHT22;62678;52.130;5.584;2023-01-20T05:48:30;1.80;99.90
11963;DHT22;62678;52.130;5.584;2023-01-20T05:50:57;1.80;99.90
11963;DHT22;62678;52.130;5.584;2023-01-20T05:53:24;1.80;99.90
11963;DHT22;62678;52.130;5.584;2023-01-20T05:55:58;1.70;99.90
11963;DHT22;62678;52.130;5.584;2023-01-20T05:58:27;1.80;99.90
11963;DHT22;62678;52.130;5.584;2023-01-20T06:01:04;1.70;99.90
11963;DHT22;62678;52.130;5.584;2023-01-20T06:03:32;1.80;99.90
11963;DHT22;62678;52.130;5.584;2023-01-20T06:06:01;1.80;99.90
11963;DHT22;62678;52.130;5.584;2023-01-20T06:08:28;1.70;99.90
11963;DHT22;62678;52.130;5.584;2023-01-20T06:10:55;1.70;99.90
11963;DHT22;62678;52.130;5.584;2023-01-20T06:13:22;1.80;99.90
11963;DHT22;62678;52.130;5.584;2023-01-20T06:15:53;1.80;99.90
11963;DHT22;62678;52.130;5.584;2023-01-20T06:18:22;1.90;99.90
11963;DHT22;62678;52.130;5.584;2023-01-20T06:20:49;1.90;99.90
11963;DHT22;62678;52.130;5.584;2023-01-20T06:23:18;1.90;99.90
11963;DHT22;62678;52.130;5.584;2023-01-20T06:25:46;1.80;99.90
11963;DHT22;62678;52.130;5.584;2023-01-20T06:28:13;1.80;99.90
11963;DHT22;62678;52.130;5.584;2023-01-20T06:30:40;1.80;99.90
11963;DHT22;62678;52.130;5.584;2023-01-20T06:33:07;1.70;99.90
11963;DHT22;62678;52.130;5.584;2023-01-20T06:35:37;1.70;99.90
11963;DHT22;62678;52.130;5.584;2023-01-20T06:38:05;1.80;99.90
11963;DHT22;62678;52.130;5.584;2023-01-20T06:40:33;1.70;99.90
11963;DHT22;62678;52.130;5.584;2023-01-20T06:43:00;1.70;99.90
11963;DHT22;62678;52.130;5.584;2023-01-20T06:45:28;1.70;99.90
11963;DHT22;62678;52.130;5.584;2023-01-20T06:47:55;1.70;99.90
11963;DHT22;62678;52.130;5.584;2023-01-20T06:50:22;1.70;99.90
11963;DHT22;62678;52.130;5.584;2023-01-20T06:52:52;1.70;99.90
11963;DHT22;62678;52.130;5.584;2023-01-20T06:55:20;1.70;99.90
11963;DHT22;62678;52.130;5.584;2023-01-20T06:57:47;1.70;99.90
11963;DHT22;62678;52.130;5.584;2023-01-20T07:00:15;1.70;99.90
11963;DHT22;62678;52.130;5.584;2023-01-20T07:02:43;1.70;99.90
11963;DHT22;62678;52.130;5.584;2023-01-20T07:05:10;1.70;99.90
11963;DHT22;62678;52.130;5.584;2023-01-20T07:07:38;1.70;99.90
11963;DHT22;62678;52.130;5.584;2023-01-20T07:10:08;1.70;99.90
11963;DHT22;62678;52.130;5.584;2023-01-20T07:12:35;1.70;99.90
11963;DHT22;62678;52.130;5.584;2023-01-20T07:15:07;1.70;99.90
11963;DHT22;62678;52.130;5.584;2023-01-20T07:17:34;1.70;99.90
11963;DHT22;62678;52.130;5.584;2023-01-20T07:20:01;1.70;99.90
11963;DHT22;62678;52.130;5.584;2023-01-20T07:22:28;1.70;99.90
11963;DHT22;62678;52.130;5.584;2023-01-20T07:24:55;1.70;99.90
11963;DHT22;62678;52.130;5.584;2023-01-20T07:27:24;1.60;99.90
11963;DHT22;62678;52.130;5.584;2023-01-20T07:29:51;1.70;99.90
11963;DHT22;62678;52.130;5.584;2023-01-20T07:32:18;1.70;99.90
11963;DHT22;62678;52.130;5.584;2023-01-20T07:34:46;1.70;99.90
11963;DHT22;62678;52.130;5.584;2023-01-20T07:37:12;1.80;99.90
11963;DHT22;62678;52.130;5.584;2023-01-20T07:39:40;1.80;99.90
11963;DHT22;62678;52.130;5.584;2023-01-20T07:42:07;1.70;99.90
11963;DHT22;62678;52.130;5.584;2023-01-20T07:44:35;1.80;99.90
11963;DHT22;62678;52.130;5.584;2023-01-20T07:47:02;1.70;99.90
11963;DHT22;62678;52.130;5.584;2023-01-20T07:49:30;1.80;99.90
11963;DHT22;62678;52.130;5.584;2023-01-20T07:51:57;1.60;99.90
11963;DHT22;62678;52.130;5.584;2023-01-20T07:54:25;1.70;99.90
11963;DHT22;62678;52.130;5.584;2023-01-20T07:56:52;1.90;99.90
11963;DHT22;62678;52.130;5.584;2023-01-20T07:59:18;1.80;99.90
11963;DHT22;62678;52.130;5.584;2023-01-20T08:01:47;1.80;99.90
11963;DHT22;62678;52.130;5.584;2023-01-20T08:04:14;1.80;99.90
11963;DHT22;62678;52.130;5.584;2023-01-20T08:06:42;1.90;99.90
11963;DHT22;62678;52.130;5.584;2023-01-20T08:09:09;1.90;99.90
11963;DHT22;62678;52.130;5.584;2023-01-20T08:11:39;1.90;99.90
11963;DHT22;62678;52.130;5.584;2023-01-20T08:14:06;2.00;99.90
11963;DHT22;62678;52.130;5.584;2023-01-20T08:16:33;2.00;99.90
11963;DHT22;62678;52.130;5.584;2023-01-20T08:19:02;2.00;99.90
11963;DHT22;62678;52.130;5.584;2023-01-20T08:21:30;2.00;99.90
11963;DHT22;62678;52.130;5.584;2023-01-20T08:23:59;2.00;99.90
11963;DHT22;62678;52.130;5.584;2023-01-20T08:26:27;2.00;99.90
11963;DHT22;62678;52.130;5.584;2023-01-20T08:28:54;2.00;99.90
11963;DHT22;62678;52.130;5.584;2023-01-20T08:31:23;2.00;99.90
11963;DHT22;62678;52.130;5.584;2023-01-20T08:33:52;2.00;99.90
11963;DHT22;62678;52.130;5.584;2023-01-20T08:36:24;2.00;99.90
11963;DHT22;62678;52.130;5.584;2023-01-20T08:38:52;2.00;99.90
11963;DHT22;62678;52.130;5.584;2023-01-20T08:41:22;1.90;99.90
11963;DHT22;62678;52.130;5.584;2023-01-20T08:43:49;1.90;99.90
11963;DHT22;62678;52.130;5.584;2023-01-20T08:46:17;1.90;99.90
11963;DHT22;62678;52.130;5.584;2023-01-20T08:48:45;1.90;99.90
11963;DHT22;62678;52.130;5.584;2023-01-20T08:51:18;2.00;99.90
11963;DHT22;62678;52.130;5.584;2023-01-20T08:53:47;2.10;99.90
11963;DHT22;62678;52.130;5.584;2023-01-20T08:56:14;2.10;99.90
11963;DHT22;62678;52.130;5.584;2023-01-20T08:58:42;2.10;99.90
11963;DHT22;62678;52.130;5.584;2023-01-20T09:01:10;2.10;99.90
11963;DHT22;62678;52.130;5.584;2023-01-20T09:03:38;2.10;99.90
11963;DHT22;62678;52.130;5.584;2023-01-20T09:06:06;2.10;99.90
11963;DHT22;62678;52.130;5.584;2023-01-20T09:08:34;2.20;99.90
11963;DHT22;62678;52.130;5.584;2023-01-20T09:11:05;2.20;99.90
11963;DHT22;62678;52.130;5.584;2023-01-20T09:13:32;2.20;99.90
11963;DHT22;62678;52.130;5.584;2023-01-20T09:16:00;2.10;99.90
11963;DHT22;62678;52.130;5.584;2023-01-20T09:18:29;2.10;99.90
11963;DHT22;62678;52.130;5.584;2023-01-20T09:20:56;2.20;99.90
11963;DHT22;62678;52.130;5.584;2023-01-20T09:23:24;2.20;99.90
11963;DHT22;62678;52.130;5.584;2023-01-20T09:26:10;2.30;99.90
11963;DHT22;62678;52.130;5.584;2023-01-20T09:28:48;2.10;99.90
11963;DHT22;62678;52.130;5.584;2023-01-20T09:31:16;2.20;99.90
11963;DHT22;62678;52.130;5.584;2023-01-20T09:33:44;2.10;99.90
11963;DHT22;62678;52.130;5.584;2023-01-20T09:36:11;2.10;99.90
11963;DHT22;62678;52.130;5.584;2023-01-20T09:38:38;2.10;99.90
11963;DHT22;62678;52.130;5.584;2023-01-20T09:41:29;2.10;99.90
11963;DHT22;62678;52.130;5.584;2023-01-20T09:44:25;2.10;99.90
11963;DHT22;62678;52.130;5.584;2023-01-20T09:47:15;2.10;99.90
11963;DHT22;62678;52.130;5.584;2023-01-20T09:53:05;2.30;99.90
11963;DHT22;62678;52.130;5.584;2023-01-20T09:55:43;2.20;99.90
11963;DHT22;62678;52.130;5.584;2023-01-20T09:58:23;2.30;99.90
11963;DHT22;62678;52.130;5.584;2023-01-20T10:00:54;2.30;99.90
11963;DHT22;62678;52.130;5.584;2023-01-20T10:03:29;2.30;99.90
11963;DHT22;62678;52.130;5.584;2023-01-20T10:06:05;2.30;99.90
11963;DHT22;62678;52.130;5.584;2023-01-20T10:08:36;2.30;99.90
11963;DHT22;62678;52.130;5.584;2023-01-20T10:11:07;2.30;99.90
11963;DHT22;62678;52.130;5.584;2023-01-20T10:13:39;2.30;99.90
11963;DHT22;62678;52.130;5.584;2023-01-20T10:16:19;2.30;99.90
11963;DHT22;62678;52.130;5.584;2023-01-20T10:18:52;2.40;99.90
11963;DHT22;62678;52.130;5.584;2023-01-20T10:21:27;2.30;99.90
11963;DHT22;62678;52.130;5.584;2023-01-20T10:23:59;2.30;99.90
11963;DHT22;62678;52.130;5.584;2023-01-20T10:26:30;2.40;99.90
11963;DHT22;62678;52.130;5.584;2023-01-20T10:29:01;2.60;99.90
11963;DHT22;62678;52.130;5.584;2023-01-20T10:31:32;2.60;99.90
11963;DHT22;62678;52.130;5.584;2023-01-20T10:34:06;2.60;99.90
11963;DHT22;62678;52.130;5.584;2023-01-20T10:36:38;2.60;99.90
11963;DHT22;62678;52.130;5.584;2023-01-20T10:39:16;2.50;99.90
11963;DHT22;62678;52.130;5.584;2023-01-20T10:41:49;2.60;99.90
11963;DHT22;62678;52.130;5.584;2023-01-20T10:44:22;2.70;99.90
11963;DHT22;62678;52.130;5.584;2023-01-20T10:47:02;2.60;99.90
11963;DHT22;62678;52.130;5.584;2023-01-20T10:50:06;2.80;99.90
11963;DHT22;62678;52.130;5.584;2023-01-20T10:53:00;2.80;99.90
11963;DHT22;62678;52.130;5.584;2023-01-20T10:55:38;2.70;99.90
11963;DHT22;62678;52.130;5.584;2023-01-20T10:58:14;2.80;99.90
11963;DHT22;62678;52.130;5.584;2023-01-20T11:00:44;2.70;99.90
11963;DHT22;62678;52.130;5.584;2023-01-20T11:03:14;2.60;99.90
11963;DHT22;62678;52.130;5.584;2023-01-20T11:05:41;2.40;99.90
11963;DHT22;62678;52.130;5.584;2023-01-20T11:08:13;2.40;99.90
11963;DHT22;62678;52.130;5.584;2023-01-20T11:10:41;2.30;99.90
11963;DHT22;62678;52.130;5.584;2023-01-20T11:13:09;2.40;99.90
11963;DHT22;62678;52.130;5.584;2023-01-20T11:15:39;2.40;99.90
11963;DHT22;62678;52.130;5.584;2023-01-20T11:18:26;2.50;99.90
11963;DHT22;62678;52.130;5.584;2023-01-20T11:20:57;2.50;99.90
11963;DHT22;62678;52.130;5.584;2023-01-20T11:23:33;2.70;99.90
11963;DHT22;62678;52.130;5.584;2023-01-20T11:26:02;2.70;99.90
11963;DHT22;62678;52.130;5.584;2023-01-20T11:28:44;2.70;99.90
11963;DHT22;62678;52.130;5.584;2023-01-20T11:31:14;2.70;99.90
11963;DHT22;62678;52.130;5.584;2023-01-20T11:33:54;2.80;99.90
11963;DHT22;62678;52.130;5.584;2023-01-20T11:36:22;2.80;99.90
11963;DHT22;62678;52.130;5.584;2023-01-20T11:38:51;2.90;99.90
11963;DHT22;62678;52.130;5.584;2023-01-20T11:41:20;2.90;99.90
11963;DHT22;62678;52.130;5.584;2023-01-20T11:43:48;2.90;99.90
11963;DHT22;62678;52.130;5.584;2023-01-20T11:46:24;3.00;99.90
11963;DHT22;62678;52.130;5.584;2023-01-20T11:49:12;2.90;99.90
11963;DHT22;62678;52.130;5.584;2023-01-20T11:51:49;3.00;99.90
11963;DHT22;62678;52.130;5.584;2023-01-20T11:54:18;3.10;99.90
11963;DHT22;62678;52.130;5.584;2023-01-20T11:56:48;3.10;99.90
11963;DHT22;62678;52.130;5.584;2023-01-20T11:59:22;3.30;99.90
11963;DHT22;62678;52.130;5.584;2023-01-20T12:01:56;3.40;99.90
11963;DHT22;62678;52.130;5.584;2023-01-20T12:04:49;3.40;99.90
11963;DHT22;62678;52.130;5.584;2023-01-20T12:07:23;3.50;99.90
11963;DHT22;62678;52.130;5.584;2023-01-20T12:09:53;3.50;99.90
11963;DHT22;62678;52.130;5.584;2023-01-20T12:12:27;3.60;99.90
11963;DHT22;62678;52.130;5.584;2023-01-20T12:14:59;3.60;99.90
11963;DHT22;62678;52.130;5.584;2023-01-20T12:17:38;3.60;99.90
11963;DHT22;62678;52.130;5.584;2023-01-20T12:20:18;3.70;99.90
11963;DHT22;62678;52.130;5.584;2023-01-20T12:23:02;3.70;99.90
11963;DHT22;62678;52.130;5.584;2023-01-20T12:25:33;3.60;99.90
11963;DHT22;62678;52.130;5.584;2023-01-20T12:28:04;3.70;99.90
11963;DHT22;62678;52.130;5.584;2023-01-20T12:30:46;3.70;99.90
11963;DHT22;62678;52.130;5.584;2023-01-20T12:33:19;3.60;99.90
11963;DHT22;62678;52.130;5.584;2023-01-20T12:36:27;3.70;99.90
11963;DHT22;62678;52.130;5.584;2023-01-20T12:42:33;3.60;99.90
11963;DHT22;62678;52.130;5.584;2023-01-20T12:45:10;3.50;99.90
11963;DHT22;62678;52.130;5.584;2023-01-20T12:47:50;3.50;99.90
11963;DHT22;62678;52.130;5.584;2023-01-20T12:50:31;3.40;99.90
11963;DHT22;62678;52.130;5.584;2023-01-20T12:53:19;3.30;99.90
11963;DHT22;62678;52.130;5.584;2023-01-20T12:55:55;3.30;99.90
11963;DHT22;62678;52.130;5.584;2023-01-20T12:58:36;3.10;99.90
11963;DHT22;62678;52.130;5.584;2023-01-20T13:04:29;3.40;99.90
11963;DHT22;62678;52.130;5.584;2023-01-20T13:07:14;3.40;99.90
11963;DHT22;62678;52.130;5.584;2023-01-20T13:10:02;3.40;99.90
11963;DHT22;62678;52.130;5.584;2023-01-20T13:12:40;3.20;99.90
11963;DHT22;62678;52.130;5.584;2023-01-20T13:15:18;3.00;99.90
11963;DHT22;62678;52.130;5.584;2023-01-20T13:20:37;3.40;99.90
11963;DHT22;62678;52.130;5.584;2023-01-20T13:23:09;3.30;99.90
11963;DHT22;62678;52.130;5.584;2023-01-20T13:25:41;3.30;99.90
11963;DHT22;62678;52.130;5.584;2023-01-20T13:28:15;3.30;99.90
11963;DHT22;62678;52.130;5.584;2023-01-20T13:30:43;3.30;99.90
11963;DHT22;62678;52.130;5.584;2023-01-20T13:33:15;3.20;99.90
11963;DHT22;62678;52.130;5.584;2023-01-20T13:35:47;3.30;99.90
11963;DHT22;62678;52.130;5.584;2023-01-20T13:38:20;3.40;99.90
11963;DHT22;62678;52.130;5.584;2023-01-20T13:40:59;3.40;99.90
11963;DHT22;62678;52.130;5.584;2023-01-20T13:43:47;3.60;99.90
11963;DHT22;62678;52.130;5.584;2023-01-20T13:46:45;3.50;99.90
11963;DHT22;62678;52.130;5.584;2023-01-20T13:49:19;3.40;99.90
11963;DHT22;62678;52.130;5.584;2023-01-20T13:51:46;3.40;99.90
11963;DHT22;62678;52.130;5.584;2023-01-20T13:54:43;3.30;99.90
11963;DHT22;62678;52.130;5.584;2023-01-20T13:57:45;3.30;99.90
11963;DHT22;62678;52.130;5.584;2023-01-20T14:00:13;3.20;99.90
11963;DHT22;62678;52.130;5.584;2023-01-20T14:02:40;3.20;99.90
11963;DHT22;62678;52.130;5.584;2023-01-20T14:05:26;3.20;99.90
11963;DHT22;62678;52.130;5.584;2023-01-20T14:07:54;3.20;99.90
11963;DHT22;62678;52.130;5.584;2023-01-20T14:10:21;3.10;99.90
11963;DHT22;62678;52.130;5.584;2023-01-20T14:12:49;3.30;99.90
11963;DHT22;62678;52.130;5.584;2023-01-20T14:15:29;3.20;99.90
11963;DHT22;62678;52.130;5.584;2023-01-20T14:17:57;3.30;99.90
11963;DHT22;62678;52.130;5.584;2023-01-20T14:20:26;3.20;99.90
11963;DHT22;62678;52.130;5.584;2023-01-20T14:22:53;3.30;99.90
11963;DHT22;62678;52.130;5.584;2023-01-20T14:25:22;3.20;99.90
11963;DHT22;62678;52.130;5.584;2023-01-20T14:27:51;3.40;99.90
11963;DHT22;62678;52.130;5.584;2023-01-20T14:30:21;3.40;99.90
11963;DHT22;62678;52.130;5.584;2023-01-20T14:32:49;3.50;99.90
11963;DHT22;62678;52.130;5.584;2023-01-20T14:35:20;3.50;99.90
11963;DHT22;62678;52.130;5.584;2023-01-20T14:37:49;3.60;99.90
11963;DHT22;62678;52.130;5.584;2023-01-20T14:40:22;3.60;99.90
11963;DHT22;62678;52.130;5.584;2023-01-20T14:42:58;3.50;99.90
11963;DHT22;62678;52.130;5.584;2023-01-20T14:45:27;3.50;99.90
11963;DHT22;62678;52.130;5.584;2023-01-20T14:47:55;3.70;99.90
11963;DHT22;62678;52.130;5.584;2023-01-20T14:50:23;3.60;99.90
11963;DHT22;62678;52.130;5.584;2023-01-20T14:52:50;3.50;99.90
11963;DHT22;62678;52.130;5.584;2023-01-20T14:55:27;3.50;99.90
11963;DHT22;62678;52.130;5.584;2023-01-20T14:57:54;3.60;99.90
11963;DHT22;62678;52.130;5.584;2023-01-20T15:00:25;3.60;99.90
11963;DHT22;62678;52.130;5.584;2023-01-20T15:02:55;3.60;99.90
11963;DHT22;62678;52.130;5.584;2023-01-20T15:05:30;3.60;99.90
11963;DHT22;62678;52.130;5.584;2023-01-20T15:08:15;3.60;99.90
11963;DHT22;62678;52.130;5.584;2023-01-20T15:10:43;3.50;99.90
11963;DHT22;62678;52.130;5.584;2023-01-20T15:13:23;3.60;99.90
11963;DHT22;62678;52.130;5.584;2023-01-20T15:15:53;3.70;99.90
11963;DHT22;62678;52.130;5.584;2023-01-20T15:18:31;3.60;99.90
11963;DHT22;62678;52.130;5.584;2023-01-20T15:21:10;3.60;99.90
11963;DHT22;62678;52.130;5.584;2023-01-20T15:23:37;3.60;99.90
11963;DHT22;62678;52.130;5.584;2023-01-20T15:26:06;3.60;99.90
11963;DHT22;62678;52.130;5.584;2023-01-20T15:28:36;3.50;99.90
11963;DHT22;62678;52.130;5.584;2023-01-20T15:31:04;3.50;99.90
11963;DHT22;62678;52.130;5.584;2023-01-20T15:33:31;3.50;99.90
11963;DHT22;62678;52.130;5.584;2023-01-20T15:35:59;3.60;99.90
11963;DHT22;62678;52.130;5.584;2023-01-20T15:38:27;3.60;99.90
11963;DHT22;62678;52.130;5.584;2023-01-20T15:40:56;3.60;99.90
11963;DHT22;62678;52.130;5.584;2023-01-20T15:43:23;3.50;99.90
11963;DHT22;62678;52.130;5.584;2023-01-20T15:45:50;3.60;99.90
11963;DHT22;62678;52.130;5.584;2023-01-20T15:48:19;3.60;99.90
11963;DHT22;62678;52.130;5.584;2023-01-20T15:50:47;3.60;99.90
11963;DHT22;62678;52.130;5.584;2023-01-20T15:53:14;3.60;99.90
11963;DHT22;62678;52.130;5.584;2023-01-20T15:55:45;3.70;99.90
11963;DHT22;62678;52.130;5.584;2023-01-20T15:58:21;3.70;99.90
11963;DHT22;62678;52.130;5.584;2023-01-20T16:00:49;3.70;99.90
11963;DHT22;62678;52.130;5.584;2023-01-20T16:03:17;3.60;99.90
11963;DHT22;62678;52.130;5.584;2023-01-20T16:05:47;3.60;99.90
11963;DHT22;62678;52.130;5.584;2023-01-20T16:08:15;3.70;99.90
11963;DHT22;62678;52.130;5.584;2023-01-20T16:10:42;3.60;99.90
11963;DHT22;62678;52.130;5.584;2023-01-20T16:13:09;3.60;99.90
11963;DHT22;62678;52.130;5.584;2023-01-20T16:15:36;3.60;99.90
11963;DHT22;62678;52.130;5.584;2023-01-20T16:18:04;3.60;99.90
11963;DHT22;62678;52.130;5.584;2023-01-20T16:20:34;3.60;99.90
11963;DHT22;62678;52.130;5.584;2023-01-20T16:23:01;3.60;99.90
11963;DHT22;62678;52.130;5.584;2023-01-20T16:25:28;3.60;99.90
11963;DHT22;62678;52.130;5.584;2023-01-20T16:27:56;3.50;99.90